MiSS Allie — WDG3664 — position and weather

sailwx.info

Track history (hours):
 
Tides and Currents Weather Stations Pressure Air Temp Water Temp Dewpoint Dewpoint Depression Visibility Wind Speed Wind Dir Waves Ship Positions

MiSS Allie

Owner: Genesis Marine, LLC, Houston, TX. More information available from US FCC via Universal Licensing System and Coast Guard Vessel Documentation Center.

Last reported at 2017-Sep-17 06:25 UTC. Time now 2017-Sep-23 04:08 UTC.
Position N 32°05' W 091°05'.

Length 29 m; draft 3.2 m.

Type: Other ship. MMSI: 367528420.

Date/timePositionNaut miles runAvg speedWind from/ knotsBaromVisibWave heightAir tempDewpointWater temp
2017-Sep-17 06:25N 32°05' W 091°05'3 5.6
2017-Sep-17 05:58N 32°08' W 091°06'3 7.5
2017-Sep-17 05:30N 32°07' W 091°02'5 7.6
2017-Sep-17 04:54N 32°11' W 090°60'3 8.1
2017-Sep-17 04:30N 32°15' W 090°59'4 8.0
2017-Sep-17 04:00N 32°18' W 090°56'3 6.1
2017-Sep-17 03:30N 32°21' W 090°55'4 7.9
2017-Sep-17 03:00N 32°21' W 090°59'4 7.2
2017-Sep-17 02:30N 32°25' W 090°60'4 7.9
2017-Sep-17 02:00N 32°26' W 091°04'4 7.6
2017-Sep-17 01:30N 32°29' W 091°07'4 8.2
2017-Sep-17 01:00N 32°33' W 091°06'4 8.0
2017-Sep-17 00:30N 32°36' W 091°09'  
2017-Sep-13 00:01N 38°57' W 090°22'0 6.2
2017-Sep-13 00:00N 38°57' W 090°22'3 5.9
2017-Sep-12 23:30N 38°58' W 090°25'2 4.6
2017-Sep-12 23:00N 38°58' W 090°28'2 4.2
2017-Sep-12 22:30N 38°57' W 090°31'  
Track history (hours):
 
Tides and Currents Weather Stations Pressure Air Temp Water Temp Dewpoint Dewpoint Depression Visibility Wind Speed Wind Dir Waves Ship Positions

MiSS Allie

Owner: Genesis Marine, LLC, Houston, TX. More information available from US FCC via Universal Licensing System and Coast Guard Vessel Documentation Center.

Last reported at 2017-Sep-17 06:25 UTC. Time now 2017-Sep-23 04:08 UTC.
Position N 32°05' W 091°05'.

Length 29 m; draft 3.2 m.

Type: Other ship. MMSI: 367528420.

Date/timePositionNaut miles runAvg speedWind from/ knotsBaromVisibWave heightAir tempDewpointWater temp
2017-Sep-17 06:25N 32°05' W 091°05'3 5.6
2017-Sep-17 05:58N 32°08' W 091°06'3 7.5
2017-Sep-17 05:30N 32°07' W 091°02'5 7.6
2017-Sep-17 04:54N 32°11' W 090°60'3 8.1
2017-Sep-17 04:30N 32°15' W 090°59'4 8.0
2017-Sep-17 04:00N 32°18' W 090°56'3 6.1
2017-Sep-17 03:30N 32°21' W 090°55'4 7.9
2017-Sep-17 03:00N 32°21' W 090°59'4 7.2
2017-Sep-17 02:30N 32°25' W 090°60'4 7.9
2017-Sep-17 02:00N 32°26' W 091°04'4 7.6
2017-Sep-17 01:30N 32°29' W 091°07'4 8.2
2017-Sep-17 01:00N 32°33' W 091°06'4 8.0
2017-Sep-17 00:30N 32°36' W 091°09'  
2017-Sep-13 00:01N 38°57' W 090°22'0 6.2
2017-Sep-13 00:00N 38°57' W 090°22'3 5.9
2017-Sep-12 23:30N 38°58' W 090°25'2 4.6
2017-Sep-12 23:00N 38°58' W 090°28'2 4.2
2017-Sep-12 22:30N 38°57' W 090°31'  

Dump ship's entire track history